sensor_id;sensor_type;location;lat;lon;timestamp;temperature;humidity
37410;DHT22;23275;48.914;12.566;2023-06-26T00:00:15;16.90;99.90
37410;DHT22;23275;48.914;12.566;2023-06-26T00:02:40;16.80;99.90
37410;DHT22;23275;48.914;12.566;2023-06-26T00:05:06;16.80;99.90
37410;DHT22;23275;48.914;12.566;2023-06-26T00:07:33;16.70;99.90
37410;DHT22;23275;48.914;12.566;2023-06-26T00:10:03;16.70;99.90
37410;DHT22;23275;48.914;12.566;2023-06-26T00:12:29;16.60;99.90
37410;DHT22;23275;48.914;12.566;2023-06-26T00:14:55;16.60;99.90
37410;DHT22;23275;48.914;12.566;2023-06-26T00:17:21;16.50;99.90
37410;DHT22;23275;48.914;12.566;2023-06-26T00:19:46;16.40;99.90
37410;DHT22;23275;48.914;12.566;2023-06-26T00:22:12;16.40;99.90
37410;DHT22;23275;48.914;12.566;2023-06-26T00:24:38;16.30;99.90
37410;DHT22;23275;48.914;12.566;2023-06-26T00:27:03;16.20;99.90
37410;DHT22;23275;48.914;12.566;2023-06-26T00:29:29;16.10;99.90
37410;DHT22;23275;48.914;12.566;2023-06-26T00:31:54;16.10;99.90
37410;DHT22;23275;48.914;12.566;2023-06-26T00:34:20;16.00;99.90
37410;DHT22;23275;48.914;12.566;2023-06-26T00:36:45;16.00;99.90
37410;DHT22;23275;48.914;12.566;2023-06-26T00:39:11;16.00;99.90
37410;DHT22;23275;48.914;12.566;2023-06-26T00:41:37;15.90;99.90
37410;DHT22;23275;48.914;12.566;2023-06-26T00:44:04;15.90;99.90
37410;DHT22;23275;48.914;12.566;2023-06-26T00:46:30;15.80;99.90
37410;DHT22;23275;48.914;12.566;2023-06-26T00:49:02;15.80;99.90
37410;DHT22;23275;48.914;12.566;2023-06-26T00:51:29;15.80;99.90
37410;DHT22;23275;48.914;12.566;2023-06-26T00:53:56;15.70;99.90
37410;DHT22;23275;48.914;12.566;2023-06-26T00:56:22;15.70;99.90
37410;DHT22;23275;48.914;12.566;2023-06-26T00:58:48;15.70;99.90
37410;DHT22;23275;48.914;12.566;2023-06-26T01:01:13;15.70;99.90
37410;DHT22;23275;48.914;12.566;2023-06-26T01:03:46;15.70;99.90
37410;DHT22;23275;48.914;12.566;2023-06-26T01:06:17;15.70;99.90
37410;DHT22;23275;48.914;12.566;2023-06-26T01:08:44;15.70;99.90
37410;DHT22;23275;48.914;12.566;2023-06-26T01:11:10;15.70;99.90
37410;DHT22;23275;48.914;12.566;2023-06-26T01:13:36;15.60;99.90
37410;DHT22;23275;48.914;12.566;2023-06-26T01:16:02;15.60;99.90
37410;DHT22;23275;48.914;12.566;2023-06-26T01:18:30;15.60;99.90
37410;DHT22;23275;48.914;12.566;2023-06-26T01:20:56;15.60;99.90
37410;DHT22;23275;48.914;12.566;2023-06-26T01:23:37;15.60;99.90
37410;DHT22;23275;48.914;12.566;2023-06-26T01:26:23;15.60;99.90
37410;DHT22;23275;48.914;12.566;2023-06-26T01:28:52;15.60;99.90
37410;DHT22;23275;48.914;12.566;2023-06-26T01:31:19;15.60;99.90
37410;DHT22;23275;48.914;12.566;2023-06-26T01:33:45;15.60;99.90
37410;DHT22;23275;48.914;12.566;2023-06-26T01:36:11;15.50;99.90
37410;DHT22;23275;48.914;12.566;2023-06-26T01:38:37;15.50;99.90
37410;DHT22;23275;48.914;12.566;2023-06-26T01:41:04;15.50;99.90
37410;DHT22;23275;48.914;12.566;2023-06-26T01:46:23;15.40;99.90
37410;DHT22;23275;48.914;12.566;2023-06-26T01:49:00;15.40;99.90
37410;DHT22;23275;48.914;12.566;2023-06-26T01:51:35;15.30;99.90
37410;DHT22;23275;48.914;12.566;2023-06-26T01:54:09;15.30;99.90
37410;DHT22;23275;48.914;12.566;2023-06-26T01:56:38;15.30;99.90
37410;DHT22;23275;48.914;12.566;2023-06-26T01:59:05;15.30;99.90
37410;DHT22;23275;48.914;12.566;2023-06-26T02:01:32;15.30;99.90
37410;DHT22;23275;48.914;12.566;2023-06-26T02:03:59;15.30;99.90
37410;DHT22;23275;48.914;12.566;2023-06-26T02:06:25;15.20;99.90
37410;DHT22;23275;48.914;12.566;2023-06-26T02:08:50;15.20;99.90
37410;DHT22;23275;48.914;12.566;2023-06-26T02:11:16;15.20;99.90
37410;DHT22;23275;48.914;12.566;2023-06-26T02:13:42;15.20;99.90
37410;DHT22;23275;48.914;12.566;2023-06-26T02:16:07;15.10;99.90
37410;DHT22;23275;48.914;12.566;2023-06-26T02:18:33;15.10;99.90
37410;DHT22;23275;48.914;12.566;2023-06-26T02:20:58;15.10;99.90
37410;DHT22;23275;48.914;12.566;2023-06-26T02:23:24;15.10;99.90
37410;DHT22;23275;48.914;12.566;2023-06-26T02:25:49;15.10;99.90
37410;DHT22;23275;48.914;12.566;2023-06-26T02:28:15;15.00;99.90
37410;DHT22;23275;48.914;12.566;2023-06-26T02:30:40;15.00;99.90
37410;DHT22;23275;48.914;12.566;2023-06-26T02:33:06;15.00;99.90
37410;DHT22;23275;48.914;12.566;2023-06-26T02:35:31;15.00;99.90
37410;DHT22;23275;48.914;12.566;2023-06-26T02:37:58;15.00;99.90
37410;DHT22;23275;48.914;12.566;2023-06-26T02:40:24;14.90;99.90
37410;DHT22;23275;48.914;12.566;2023-06-26T02:42:49;15.00;99.90
37410;DHT22;23275;48.914;12.566;2023-06-26T02:45:15;15.00;99.90
37410;DHT22;23275;48.914;12.566;2023-06-26T02:47:40;14.90;99.90
37410;DHT22;23275;48.914;12.566;2023-06-26T02:50:07;14.90;99.90
37410;DHT22;23275;48.914;12.566;2023-06-26T02:52:33;14.90;99.90
37410;DHT22;23275;48.914;12.566;2023-06-26T02:54:58;14.90;99.90
37410;DHT22;23275;48.914;12.566;2023-06-26T02:57:24;14.80;99.90
37410;DHT22;23275;48.914;12.566;2023-06-26T02:59:49;14.70;99.90
37410;DHT22;23275;48.914;12.566;2023-06-26T03:02:15;14.70;99.90
37410;DHT22;23275;48.914;12.566;2023-06-26T03:04:40;14.70;99.90
37410;DHT22;23275;48.914;12.566;2023-06-26T03:07:08;14.70;99.90
37410;DHT22;23275;48.914;12.566;2023-06-26T03:09:34;14.60;99.90
37410;DHT22;23275;48.914;12.566;2023-06-26T03:12:00;14.60;99.90
37410;DHT22;23275;48.914;12.566;2023-06-26T03:14:25;14.60;99.90
37410;DHT22;23275;48.914;12.566;2023-06-26T03:16:52;14.60;99.90
37410;DHT22;23275;48.914;12.566;2023-06-26T03:19:18;14.50;99.90
37410;DHT22;23275;48.914;12.566;2023-06-26T03:21:44;14.50;99.90
37410;DHT22;23275;48.914;12.566;2023-06-26T03:24:09;14.60;99.90
37410;DHT22;23275;48.914;12.566;2023-06-26T03:26:35;14.60;99.90
37410;DHT22;23275;48.914;12.566;2023-06-26T03:29:00;14.60;99.90
37410;DHT22;23275;48.914;12.566;2023-06-26T03:31:26;14.60;99.90
37410;DHT22;23275;48.914;12.566;2023-06-26T03:33:51;14.60;99.90
37410;DHT22;23275;48.914;12.566;2023-06-26T03:36:17;14.60;99.90
37410;DHT22;23275;48.914;12.566;2023-06-26T03:38:43;14.60;99.90
37410;DHT22;23275;48.914;12.566;2023-06-26T03:41:08;14.60;99.90
37410;DHT22;23275;48.914;12.566;2023-06-26T03:43:34;14.60;99.90
37410;DHT22;23275;48.914;12.566;2023-06-26T03:45:59;14.60;99.90
37410;DHT22;23275;48.914;12.566;2023-06-26T03:48:25;14.60;99.90
37410;DHT22;23275;48.914;12.566;2023-06-26T03:50:51;14.60;99.90
37410;DHT22;23275;48.914;12.566;2023-06-26T03:53:16;14.60;99.90
37410;DHT22;23275;48.914;12.566;2023-06-26T03:55:42;14.60;99.90
37410;DHT22;23275;48.914;12.566;2023-06-26T03:58:08;14.60;99.90
37410;DHT22;23275;48.914;12.566;2023-06-26T04:00:33;14.60;99.90
37410;DHT22;23275;48.914;12.566;2023-06-26T04:02:59;14.70;99.90
37410;DHT22;23275;48.914;12.566;2023-06-26T04:05:24;14.70;99.90
37410;DHT22;23275;48.914;12.566;2023-06-26T04:07:51;14.70;99.90
37410;DHT22;23275;48.914;12.566;2023-06-26T04:10:16;14.80;99.90
37410;DHT22;23275;48.914;12.566;2023-06-26T04:12:42;14.80;99.90
37410;DHT22;23275;48.914;12.566;2023-06-26T04:15:08;14.90;99.90
37410;DHT22;23275;48.914;12.566;2023-06-26T04:17:34;14.90;99.90
37410;DHT22;23275;48.914;12.566;2023-06-26T04:19:59;15.00;99.90
37410;DHT22;23275;48.914;12.566;2023-06-26T04:22:25;15.00;99.90
37410;DHT22;23275;48.914;12.566;2023-06-26T04:24:51;15.10;99.90
37410;DHT22;23275;48.914;12.566;2023-06-26T04:27:17;15.10;99.90
37410;DHT22;23275;48.914;12.566;2023-06-26T04:29:43;15.30;99.90
37410;DHT22;23275;48.914;12.566;2023-06-26T04:32:09;15.40;99.90
37410;DHT22;23275;48.914;12.566;2023-06-26T04:34:35;15.50;99.90
37410;DHT22;23275;48.914;12.566;2023-06-26T04:37:02;15.50;99.90
37410;DHT22;23275;48.914;12.566;2023-06-26T04:39:30;15.70;99.90
37410;DHT22;23275;48.914;12.566;2023-06-26T04:41:56;15.80;99.90
37410;DHT22;23275;48.914;12.566;2023-06-26T04:44:21;16.00;99.90
37410;DHT22;23275;48.914;12.566;2023-06-26T04:46:47;16.10;99.90
37410;DHT22;23275;48.914;12.566;2023-06-26T04:49:12;16.30;99.90
37410;DHT22;23275;48.914;12.566;2023-06-26T04:51:38;16.40;99.90
37410;DHT22;23275;48.914;12.566;2023-06-26T04:54:07;16.60;99.90
37410;DHT22;23275;48.914;12.566;2023-06-26T04:56:33;16.70;99.90
37410;DHT22;23275;48.914;12.566;2023-06-26T04:58:59;16.90;99.90
37410;DHT22;23275;48.914;12.566;2023-06-26T05:01:24;17.00;99.90
37410;DHT22;23275;48.914;12.566;2023-06-26T05:03:50;17.10;99.90
37410;DHT22;23275;48.914;12.566;2023-06-26T05:06:15;17.20;99.90
37410;DHT22;23275;48.914;12.566;2023-06-26T05:08:41;17.30;99.90
37410;DHT22;23275;48.914;12.566;2023-06-26T05:11:06;17.50;99.90
37410;DHT22;23275;48.914;12.566;2023-06-26T05:13:32;17.70;99.90
37410;DHT22;23275;48.914;12.566;2023-06-26T05:15:57;17.90;99.90
37410;DHT22;23275;48.914;12.566;2023-06-26T05:18:23;18.20;99.90
37410;DHT22;23275;48.914;12.566;2023-06-26T05:20:49;18.40;99.90
37410;DHT22;23275;48.914;12.566;2023-06-26T05:23:16;18.60;99.90
37410;DHT22;23275;48.914;12.566;2023-06-26T05:25:42;18.80;99.90
37410;DHT22;23275;48.914;12.566;2023-06-26T05:28:08;18.90;99.90
37410;DHT22;23275;48.914;12.566;2023-06-26T05:30:36;19.00;99.90
37410;DHT22;23275;48.914;12.566;2023-06-26T05:33:02;19.20;99.90
37410;DHT22;23275;48.914;12.566;2023-06-26T05:35:29;19.30;99.90
37410;DHT22;23275;48.914;12.566;2023-06-26T05:37:56;19.50;99.90
37410;DHT22;23275;48.914;12.566;2023-06-26T05:40:22;19.70;99.90
37410;DHT22;23275;48.914;12.566;2023-06-26T05:42:48;19.80;99.90
37410;DHT22;23275;48.914;12.566;2023-06-26T05:45:14;19.90;99.90
37410;DHT22;23275;48.914;12.566;2023-06-26T05:47:40;20.10;99.90
37410;DHT22;23275;48.914;12.566;2023-06-26T05:50:07;20.30;99.90
37410;DHT22;23275;48.914;12.566;2023-06-26T05:52:33;20.40;99.90
37410;DHT22;23275;48.914;12.566;2023-06-26T05:54:59;20.60;99.90
37410;DHT22;23275;48.914;12.566;2023-06-26T05:57:27;20.70;99.90
37410;DHT22;23275;48.914;12.566;2023-06-26T05:59:53;20.70;99.90
37410;DHT22;23275;48.914;12.566;2023-06-26T06:02:19;20.80;99.90
37410;DHT22;23275;48.914;12.566;2023-06-26T06:04:45;21.00;99.90
37410;DHT22;23275;48.914;12.566;2023-06-26T06:07:11;21.10;99.90
37410;DHT22;23275;48.914;12.566;2023-06-26T06:09:37;21.20;99.90
37410;DHT22;23275;48.914;12.566;2023-06-26T06:12:04;21.30;99.90
37410;DHT22;23275;48.914;12.566;2023-06-26T06:14:30;21.50;99.90
37410;DHT22;23275;48.914;12.566;2023-06-26T06:16:55;21.60;99.90
37410;DHT22;23275;48.914;12.566;2023-06-26T06:19:21;21.70;99.90
37410;DHT22;23275;48.914;12.566;2023-06-26T06:21:46;22.00;99.90
37410;DHT22;23275;48.914;12.566;2023-06-26T06:24:12;22.10;99.90
37410;DHT22;23275;48.914;12.566;2023-06-26T06:26:38;22.20;99.90
37410;DHT22;23275;48.914;12.566;2023-06-26T06:29:03;22.40;99.90
37410;DHT22;23275;48.914;12.566;2023-06-26T06:31:29;22.60;99.90
37410;DHT22;23275;48.914;12.566;2023-06-26T06:33:55;22.70;99.90
37410;DHT22;23275;48.914;12.566;2023-06-26T06:36:20;22.80;99.90
37410;DHT22;23275;48.914;12.566;2023-06-26T06:38:46;22.90;99.90
37410;DHT22;23275;48.914;12.566;2023-06-26T06:41:11;22.90;99.90
37410;DHT22;23275;48.914;12.566;2023-06-26T06:43:38;23.00;99.90
37410;DHT22;23275;48.914;12.566;2023-06-26T06:46:04;23.10;99.90
37410;DHT22;23275;48.914;12.566;2023-06-26T06:48:29;23.30;99.90
37410;DHT22;23275;48.914;12.566;2023-06-26T06:50:55;23.60;99.90
37410;DHT22;23275;48.914;12.566;2023-06-26T06:53:20;23.80;99.90
37410;DHT22;23275;48.914;12.566;2023-06-26T06:55:46;24.10;99.90
37410;DHT22;23275;48.914;12.566;2023-06-26T06:58:12;24.20;99.90
37410;DHT22;23275;48.914;12.566;2023-06-26T07:00:37;24.30;99.90
37410;DHT22;23275;48.914;12.566;2023-06-26T07:03:03;24.50;99.90
37410;DHT22;23275;48.914;12.566;2023-06-26T07:05:29;24.70;99.90
37410;DHT22;23275;48.914;12.566;2023-06-26T07:07:55;24.70;99.90
37410;DHT22;23275;48.914;12.566;2023-06-26T07:10:21;24.90;99.90
37410;DHT22;23275;48.914;12.566;2023-06-26T07:12:46;24.90;99.90
37410;DHT22;23275;48.914;12.566;2023-06-26T07:15:12;25.00;99.90
37410;DHT22;23275;48.914;12.566;2023-06-26T07:17:37;25.00;99.90
37410;DHT22;23275;48.914;12.566;2023-06-26T07:20:05;25.20;99.90
37410;DHT22;23275;48.914;12.566;2023-06-26T07:22:32;25.30;99.90
37410;DHT22;23275;48.914;12.566;2023-06-26T07:24:57;25.40;99.90
37410;DHT22;23275;48.914;12.566;2023-06-26T07:27:23;25.50;99.90
37410;DHT22;23275;48.914;12.566;2023-06-26T07:29:49;25.60;99.90
37410;DHT22;23275;48.914;12.566;2023-06-26T07:32:14;25.70;99.90
37410;DHT22;23275;48.914;12.566;2023-06-26T07:34:40;25.90;99.90
37410;DHT22;23275;48.914;12.566;2023-06-26T07:37:05;26.00;99.90
37410;DHT22;23275;48.914;12.566;2023-06-26T07:39:31;26.20;99.90
37410;DHT22;23275;48.914;12.566;2023-06-26T07:41:56;26.40;99.90
37410;DHT22;23275;48.914;12.566;2023-06-26T07:44:24;26.40;99.90
37410;DHT22;23275;48.914;12.566;2023-06-26T07:46:50;26.60;99.90
37410;DHT22;23275;48.914;12.566;2023-06-26T07:49:15;26.80;99.90
37410;DHT22;23275;48.914;12.566;2023-06-26T07:51:41;27.00;99.90
37410;DHT22;23275;48.914;12.566;2023-06-26T07:54:07;27.20;99.90
37410;DHT22;23275;48.914;12.566;2023-06-26T07:56:38;27.30;99.90
37410;DHT22;23275;48.914;12.566;2023-06-26T07:59:16;27.30;99.90
37410;DHT22;23275;48.914;12.566;2023-06-26T08:01:42;27.50;99.90
37410;DHT22;23275;48.914;12.566;2023-06-26T08:04:08;27.70;99.90
37410;DHT22;23275;48.914;12.566;2023-06-26T08:06:36;27.80;99.90
37410;DHT22;23275;48.914;12.566;2023-06-26T08:09:08;27.80;99.90
37410;DHT22;23275;48.914;12.566;2023-06-26T08:11:34;27.80;99.90
37410;DHT22;23275;48.914;12.566;2023-06-26T08:14:00;28.00;99.90
37410;DHT22;23275;48.914;12.566;2023-06-26T08:16:26;28.10;99.90
37410;DHT22;23275;48.914;12.566;2023-06-26T08:18:52;27.90;99.90
37410;DHT22;23275;48.914;12.566;2023-06-26T08:21:17;27.90;99.90
37410;DHT22;23275;48.914;12.566;2023-06-26T08:23:43;28.20;99.90
37410;DHT22;23275;48.914;12.566;2023-06-26T08:26:09;28.40;99.90
37410;DHT22;23275;48.914;12.566;2023-06-26T08:28:35;28.40;99.90
37410;DHT22;23275;48.914;12.566;2023-06-26T08:31:01;28.30;99.90
37410;DHT22;23275;48.914;12.566;2023-06-26T08:33:28;28.40;99.90
37410;DHT22;23275;48.914;12.566;2023-06-26T08:35:54;28.30;99.90
37410;DHT22;23275;48.914;12.566;2023-06-26T08:38:19;28.40;99.90
37410;DHT22;23275;48.914;12.566;2023-06-26T08:40:47;28.40;99.90
37410;DHT22;23275;48.914;12.566;2023-06-26T08:43:12;28.50;99.90
37410;DHT22;23275;48.914;12.566;2023-06-26T08:45:38;28.50;99.90
37410;DHT22;23275;48.914;12.566;2023-06-26T08:48:07;28.80;99.90
37410;DHT22;23275;48.914;12.566;2023-06-26T08:50:34;28.90;99.90
37410;DHT22;23275;48.914;12.566;2023-06-26T08:56:03;29.20;99.90
37410;DHT22;23275;48.914;12.566;2023-06-26T08:58:29;28.80;98.10
37410;DHT22;23275;48.914;12.566;2023-06-26T09:00:55;28.80;99.90
37410;DHT22;23275;48.914;12.566;2023-06-26T09:03:21;29.20;98.90
37410;DHT22;23275;48.914;12.566;2023-06-26T09:05:48;29.20;97.90
37410;DHT22;23275;48.914;12.566;2023-06-26T09:08:13;29.30;98.30
37410;DHT22;23275;48.914;12.566;2023-06-26T09:10:40;29.50;97.10
37410;DHT22;23275;48.914;12.566;2023-06-26T09:13:06;29.70;99.30
37410;DHT22;23275;48.914;12.566;2023-06-26T09:15:39;29.80;97.20
37410;DHT22;23275;48.914;12.566;2023-06-26T09:18:07;29.80;97.40
37410;DHT22;23275;48.914;12.566;2023-06-26T09:20:33;30.10;96.80
37410;DHT22;23275;48.914;12.566;2023-06-26T09:23:00;30.00;96.60
37410;DHT22;23275;48.914;12.566;2023-06-26T09:25:26;29.90;95.80
37410;DHT22;23275;48.914;12.566;2023-06-26T09:27:53;29.90;97.10
37410;DHT22;23275;48.914;12.566;2023-06-26T09:30:19;30.10;97.60
37410;DHT22;23275;48.914;12.566;2023-06-26T09:32:44;30.20;95.00
37410;DHT22;23275;48.914;12.566;2023-06-26T09:35:10;30.40;96.70
37410;DHT22;23275;48.914;12.566;2023-06-26T09:37:36;30.70;95.90
37410;DHT22;23275;48.914;12.566;2023-06-26T09:40:02;30.80;95.20
37410;DHT22;23275;48.914;12.566;2023-06-26T09:42:29;30.70;95.40
37410;DHT22;23275;48.914;12.566;2023-06-26T09:44:54;30.90;94.80
37410;DHT22;23275;48.914;12.566;2023-06-26T09:47:21;31.10;94.40
37410;DHT22;23275;48.914;12.566;2023-06-26T09:49:46;31.00;93.10
37410;DHT22;23275;48.914;12.566;2023-06-26T09:52:16;30.90;96.20
37410;DHT22;23275;48.914;12.566;2023-06-26T09:54:43;31.00;93.00
37410;DHT22;23275;48.914;12.566;2023-06-26T09:57:17;31.10;93.70
37410;DHT22;23275;48.914;12.566;2023-06-26T09:59:43;31.40;92.40
37410;DHT22;23275;48.914;12.566;2023-06-26T10:02:12;31.60;93.30
37410;DHT22;23275;48.914;12.566;2023-06-26T10:04:38;31.70;92.70
37410;DHT22;23275;48.914;12.566;2023-06-26T10:07:06;31.70;89.20
37410;DHT22;23275;48.914;12.566;2023-06-26T10:09:32;32.00;90.90
37410;DHT22;23275;48.914;12.566;2023-06-26T10:12:02;32.20;91.30
37410;DHT22;23275;48.914;12.566;2023-06-26T10:14:37;32.20;89.70
37410;DHT22;23275;48.914;12.566;2023-06-26T10:17:06;32.40;88.00
37410;DHT22;23275;48.914;12.566;2023-06-26T10:19:33;32.60;90.60
37410;DHT22;23275;48.914;12.566;2023-06-26T10:22:00;32.80;87.20
37410;DHT22;23275;48.914;12.566;2023-06-26T10:24:28;33.50;87.90
37410;DHT22;23275;48.914;12.566;2023-06-26T10:26:59;34.40;86.50
37410;DHT22;23275;48.914;12.566;2023-06-26T10:29:27;34.70;85.80
37410;DHT22;23275;48.914;12.566;2023-06-26T10:31:56;35.10;80.90
37410;DHT22;23275;48.914;12.566;2023-06-26T10:34:22;35.30;78.00
37410;DHT22;23275;48.914;12.566;2023-06-26T10:37:01;35.50;73.90
37410;DHT22;23275;48.914;12.566;2023-06-26T10:42:12;36.20;70.30
37410;DHT22;23275;48.914;12.566;2023-06-26T10:44:45;36.70;70.60
37410;DHT22;23275;48.914;12.566;2023-06-26T10:47:12;37.30;70.60
37410;DHT22;23275;48.914;12.566;2023-06-26T10:49:53;37.60;64.50
37410;DHT22;23275;48.914;12.566;2023-06-26T10:52:19;38.20;61.20
37410;DHT22;23275;48.914;12.566;2023-06-26T10:54:44;38.20;60.00
37410;DHT22;23275;48.914;12.566;2023-06-26T10:57:10;38.30;60.10
37410;DHT22;23275;48.914;12.566;2023-06-26T10:59:39;38.80;59.40
37410;DHT22;23275;48.914;12.566;2023-06-26T11:02:05;39.20;58.80
37410;DHT22;23275;48.914;12.566;2023-06-26T11:04:37;39.60;57.70
37410;DHT22;23275;48.914;12.566;2023-06-26T11:07:23;39.50;55.50
37410;DHT22;23275;48.914;12.566;2023-06-26T11:09:59;39.20;53.50
37410;DHT22;23275;48.914;12.566;2023-06-26T11:12:42;39.10;56.50
37410;DHT22;23275;48.914;12.566;2023-06-26T11:15:12;39.20;53.60
37410;DHT22;23275;48.914;12.566;2023-06-26T11:17:39;39.40;55.80
37410;DHT22;23275;48.914;12.566;2023-06-26T11:20:07;39.80;51.30
37410;DHT22;23275;48.914;12.566;2023-06-26T11:22:38;40.00;50.20
37410;DHT22;23275;48.914;12.566;2023-06-26T11:25:05;40.30;50.80
37410;DHT22;23275;48.914;12.566;2023-06-26T11:30:03;40.00;50.60
37410;DHT22;23275;48.914;12.566;2023-06-26T11:32:29;40.10;48.70
37410;DHT22;23275;48.914;12.566;2023-06-26T11:34:55;40.30;48.70
37410;DHT22;23275;48.914;12.566;2023-06-26T11:37:21;39.90;53.30
37410;DHT22;23275;48.914;12.566;2023-06-26T11:39:48;39.30;48.90
37410;DHT22;23275;48.914;12.566;2023-06-26T11:42:14;38.10;52.80
37410;DHT22;23275;48.914;12.566;2023-06-26T11:44:46;36.70;53.10
37410;DHT22;23275;48.914;12.566;2023-06-26T11:47:16;35.60;54.70
37410;DHT22;23275;48.914;12.566;2023-06-26T11:49:43;34.60;53.60
37410;DHT22;23275;48.914;12.566;2023-06-26T11:52:09;33.80;60.10
37410;DHT22;23275;48.914;12.566;2023-06-26T11:54:35;33.20;58.30
37410;DHT22;23275;48.914;12.566;2023-06-26T11:57:01;32.80;62.20
37410;DHT22;23275;48.914;12.566;2023-06-26T11:59:38;32.50;58.10
37410;DHT22;23275;48.914;12.566;2023-06-26T12:02:10;32.00;58.20
37410;DHT22;23275;48.914;12.566;2023-06-26T12:04:41;31.90;56.40
37410;DHT22;23275;48.914;12.566;2023-06-26T12:07:08;32.00;58.20
37410;DHT22;23275;48.914;12.566;2023-06-26T12:09:43;32.00;56.30
37410;DHT22;23275;48.914;12.566;2023-06-26T12:12:13;32.10;59.20
37410;DHT22;23275;48.914;12.566;2023-06-26T12:14:39;32.40;57.50
37410;DHT22;23275;48.914;12.566;2023-06-26T12:17:13;32.50;54.00
37410;DHT22;23275;48.914;12.566;2023-06-26T12:19:43;32.50;59.20
37410;DHT22;23275;48.914;12.566;2023-06-26T12:22:09;32.40;59.40
37410;DHT22;23275;48.914;12.566;2023-06-26T12:24:37;32.20;58.20
37410;DHT22;23275;48.914;12.566;2023-06-26T12:27:10;32.10;58.30
37410;DHT22;23275;48.914;12.566;2023-06-26T12:29:37;31.90;61.90
37410;DHT22;23275;48.914;12.566;2023-06-26T12:32:03;31.90;57.50
37410;DHT22;23275;48.914;12.566;2023-06-26T12:34:32;31.70;58.20
37410;DHT22;23275;48.914;12.566;2023-06-26T12:37:05;31.50;61.30
37410;DHT22;23275;48.914;12.566;2023-06-26T12:39:51;31.50;58.50
37410;DHT22;23275;48.914;12.566;2023-06-26T12:42:22;31.50;57.70
37410;DHT22;23275;48.914;12.566;2023-06-26T12:44:49;31.60;60.30
37410;DHT22;23275;48.914;12.566;2023-06-26T12:47:16;31.70;59.90
37410;DHT22;23275;48.914;12.566;2023-06-26T12:49:49;31.80;59.90
37410;DHT22;23275;48.914;12.566;2023-06-26T12:52:16;31.70;56.10
37410;DHT22;23275;48.914;12.566;2023-06-26T12:54:43;31.80;58.60
37410;DHT22;23275;48.914;12.566;2023-06-26T12:57:09;31.90;58.50
37410;DHT22;23275;48.914;12.566;2023-06-26T12:59:38;32.00;56.90
37410;DHT22;23275;48.914;12.566;2023-06-26T13:02:04;32.00;57.70
37410;DHT22;23275;48.914;12.566;2023-06-26T13:04:30;31.90;56.30
37410;DHT22;23275;48.914;12.566;2023-06-26T13:06:56;31.90;56.60
37410;DHT22;23275;48.914;12.566;2023-06-26T13:09:23;32.00;57.20
37410;DHT22;23275;48.914;12.566;2023-06-26T13:11:53;32.00;55.90
37410;DHT22;23275;48.914;12.566;2023-06-26T13:14:19;32.00;55.20
37410;DHT22;23275;48.914;12.566;2023-06-26T13:16:45;32.10;57.60
37410;DHT22;23275;48.914;12.566;2023-06-26T13:19:10;32.00;55.20
37410;DHT22;23275;48.914;12.566;2023-06-26T13:21:36;32.00;55.80
37410;DHT22;23275;48.914;12.566;2023-06-26T13:24:02;32.10;58.10
37410;DHT22;23275;48.914;12.566;2023-06-26T13:26:29;32.10;57.80
37410;DHT22;23275;48.914;12.566;2023-06-26T13:28:55;32.10;59.20
37410;DHT22;23275;48.914;12.566;2023-06-26T13:31:22;32.10;60.00
37410;DHT22;23275;48.914;12.566;2023-06-26T13:33:47;32.00;57.90
37410;DHT22;23275;48.914;12.566;2023-06-26T13:36:18;31.90;58.80
37410;DHT22;23275;48.914;12.566;2023-06-26T13:38:44;31.70;60.20
37410;DHT22;23275;48.914;12.566;2023-06-26T13:41:10;31.30;58.50
37410;DHT22;23275;48.914;12.566;2023-06-26T13:43:36;31.10;58.70
37410;DHT22;23275;48.914;12.566;2023-06-26T13:46:02;31.00;59.50
37410;DHT22;23275;48.914;12.566;2023-06-26T13:48:29;31.00;59.80
37410;DHT22;23275;48.914;12.566;2023-06-26T13:50:55;31.10;64.60
37410;DHT22;23275;48.914;12.566;2023-06-26T13:53:21;31.20;61.80
37410;DHT22;23275;48.914;12.566;2023-06-26T13:55:47;31.40;60.20
37410;DHT22;23275;48.914;12.566;2023-06-26T13:58:14;31.40;60.00
37410;DHT22;23275;48.914;12.566;2023-06-26T14:00:40;31.50;60.20
37410;DHT22;23275;48.914;12.566;2023-06-26T14:03:07;31.50;59.80
37410;DHT22;23275;48.914;12.566;2023-06-26T14:05:37;31.50;58.50
37410;DHT22;23275;48.914;12.566;2023-06-26T14:08:04;31.50;59.40
37410;DHT22;23275;48.914;12.566;2023-06-26T14:10:31;31.50;58.90
37410;DHT22;23275;48.914;12.566;2023-06-26T14:12:58;31.50;60.40
37410;DHT22;23275;48.914;12.566;2023-06-26T14:15:24;31.40;65.00
37410;DHT22;23275;48.914;12.566;2023-06-26T14:17:50;31.30;62.70
37410;DHT22;23275;48.914;12.566;2023-06-26T14:20:16;31.30;61.20
37410;DHT22;23275;48.914;12.566;2023-06-26T14:22:43;31.50;60.30
37410;DHT22;23275;48.914;12.566;2023-06-26T14:25:12;31.50;59.80
37410;DHT22;23275;48.914;12.566;2023-06-26T14:27:38;31.50;58.90
37410;DHT22;23275;48.914;12.566;2023-06-26T14:30:04;31.60;60.50
37410;DHT22;23275;48.914;12.566;2023-06-26T14:32:30;31.60;59.80
37410;DHT22;23275;48.914;12.566;2023-06-26T14:34:57;31.60;64.50
37410;DHT22;23275;48.914;12.566;2023-06-26T14:37:23;31.60;61.30
37410;DHT22;23275;48.914;12.566;2023-06-26T14:39:49;31.60;60.90
37410;DHT22;23275;48.914;12.566;2023-06-26T14:42:15;31.60;61.80
37410;DHT22;23275;48.914;12.566;2023-06-26T14:44:40;31.50;60.60
37410;DHT22;23275;48.914;12.566;2023-06-26T14:47:06;31.50;61.60
37410;DHT22;23275;48.914;12.566;2023-06-26T14:49:32;31.40;61.20
37410;DHT22;23275;48.914;12.566;2023-06-26T14:51:57;31.50;64.10
37410;DHT22;23275;48.914;12.566;2023-06-26T14:54:23;31.50;62.10
37410;DHT22;23275;48.914;12.566;2023-06-26T14:56:49;31.40;64.10
37410;DHT22;23275;48.914;12.566;2023-06-26T14:59:14;31.40;60.80
37410;DHT22;23275;48.914;12.566;2023-06-26T15:01:40;31.20;59.20
37410;DHT22;23275;48.914;12.566;2023-06-26T15:04:06;31.20;57.20
37410;DHT22;23275;48.914;12.566;2023-06-26T15:06:32;31.10;57.90
37410;DHT22;23275;48.914;12.566;2023-06-26T15:08:58;31.10;58.80
37410;DHT22;23275;48.914;12.566;2023-06-26T15:11:24;31.10;59.70
37410;DHT22;23275;48.914;12.566;2023-06-26T15:13:49;31.00;58.10
37410;DHT22;23275;48.914;12.566;2023-06-26T15:16:15;31.10;58.80
37410;DHT22;23275;48.914;12.566;2023-06-26T15:18:40;31.10;59.70
37410;DHT22;23275;48.914;12.566;2023-06-26T15:21:06;31.10;59.80
37410;DHT22;23275;48.914;12.566;2023-06-26T15:23:32;31.10;59.30